createdAt,value
2022-11-30T00:03:00.495Z,27.70
2022-11-30T00:07:04.042Z,26.70
2022-11-30T00:11:13.481Z,27.55
2022-11-30T00:15:18.822Z,29.42
2022-11-30T00:19:22.265Z,28.75
2022-11-30T00:23:25.630Z,29.92
2022-11-30T00:27:29.709Z,34.47
2022-11-30T00:31:34.321Z,27.77
2022-11-30T00:35:37.829Z,40.80
2022-11-30T00:39:41.635Z,36.00
2022-11-30T00:43:45.148Z,34.60
2022-11-30T00:47:50.068Z,33.60
2022-11-30T00:51:53.548Z,36.45
2022-11-30T00:55:56.848Z,39.50
2022-11-30T01:00:00.309Z,31.65
2022-11-30T01:04:05.060Z,21.40
2022-11-30T01:08:11.580Z,35.38
2022-11-30T01:12:15.035Z,32.03
2022-11-30T01:16:21.225Z,31.42
2022-11-30T01:20:25.911Z,30.50
2022-11-30T01:24:29.460Z,29.48
2022-11-30T01:28:32.992Z,30.42
2022-11-30T01:32:36.155Z,34.63
2022-11-30T01:36:41.138Z,27.33
2022-11-30T01:40:51.782Z,33.55
2022-11-30T01:44:57.467Z,30.38
2022-11-30T01:49:16.691Z,29.98
2022-11-30T01:53:21.657Z,24.15
2022-11-30T01:57:31.723Z,35.28
2022-11-30T02:01:35.155Z,38.60
2022-11-30T02:05:41.290Z,38.60
2022-11-30T02:09:47.128Z,33.05
2022-11-30T02:14:04.325Z,38.15
2022-11-30T02:18:14.459Z,36.38
2022-11-30T02:22:34.669Z,32.92
2022-11-30T02:27:06.682Z,28.15
2022-11-30T02:31:18.526Z,32.87
2022-11-30T02:35:26.813Z,25.80
2022-11-30T02:39:30.411Z,24.05
2022-11-30T02:43:34.420Z,36.88
2022-11-30T02:47:46.928Z,37.40
2022-11-30T02:51:52.209Z,24.33
2022-11-30T02:55:56.630Z,32.17
2022-11-30T03:00:02.298Z,33.28
2022-11-30T03:04:06.882Z,29.13
2022-11-30T03:08:10.382Z,29.67
2022-11-30T03:12:13.495Z,35.58
2022-11-30T03:16:17.198Z,36.60
2022-11-30T03:20:22.149Z,31.15
2022-11-30T03:24:25.149Z,30.80
2022-11-30T03:28:28.761Z,32.42
2022-11-30T03:32:32.617Z,28.50
2022-11-30T03:36:37.623Z,28.88
2022-11-30T03:40:41.187Z,29.90
2022-11-30T03:44:45.116Z,31.42
2022-11-30T03:48:48.962Z,40.38
2022-11-30T03:52:53.344Z,25.42
2022-11-30T03:56:56.852Z,30.20
2022-11-30T04:01:02.587Z,34.90
2022-11-30T04:05:06.803Z,30.10
2022-11-30T04:09:12.241Z,35.22
2022-11-30T04:13:15.379Z,31.02
2022-11-30T04:17:18.917Z,32.55
2022-11-30T04:21:22.483Z,26.92
2022-11-30T04:25:27.814Z,38.60
2022-11-30T04:29:31.012Z,28.55
2022-11-30T04:33:34.322Z,37.33
2022-11-30T04:37:37.881Z,36.63
2022-11-30T04:41:43.284Z,38.08
2022-11-30T04:45:47.873Z,38.85
2022-11-30T04:49:51.018Z,34.67
2022-11-30T04:53:54.527Z,28.67
2022-11-30T04:57:59.213Z,31.88
2022-11-30T05:02:03.235Z,34.55
2022-11-30T05:06:07.196Z,28.05
2022-11-30T05:10:11.898Z,31.00
2022-11-30T05:14:16.673Z,24.00
2022-11-30T05:22:44.862Z,31.50
2022-11-30T05:26:48.499Z,34.65
2022-11-30T05:30:53.673Z,33.90
2022-11-30T05:34:56.992Z,35.00
2022-11-30T05:39:00.302Z,28.02
2022-11-30T05:43:05.357Z,29.92
2022-11-30T05:47:10.106Z,37.65
2022-11-30T05:51:15.969Z,32.13
2022-11-30T05:55:19.235Z,32.97
2022-11-30T05:59:22.887Z,36.00
2022-11-30T06:03:29.906Z,31.65
2022-11-30T06:07:33.156Z,33.90
2022-11-30T06:11:36.341Z,34.55
2022-11-30T06:15:39.994Z,41.83
2022-11-30T06:19:44.968Z,25.75
2022-11-30T06:23:47.967Z,34.17
2022-11-30T06:27:51.305Z,39.90
2022-11-30T06:31:55.074Z,37.97
2022-11-30T06:35:59.870Z,37.45
2022-11-30T06:40:07.560Z,26.63
2022-11-30T06:44:11.982Z,35.13
2022-11-30T06:48:15.889Z,32.85
2022-11-30T06:52:20.902Z,41.85
2022-11-30T06:56:24.450Z,32.70
2022-11-30T07:00:27.945Z,39.08
2022-11-30T07:04:31.487Z,33.60
2022-11-30T07:08:36.305Z,38.75
2022-11-30T07:12:39.707Z,42.00
2022-11-30T07:16:43.611Z,42.60
2022-11-30T07:20:46.955Z,44.53
2022-11-30T07:25:09.395Z,41.28
2022-11-30T07:29:13.056Z,41.85
2022-11-30T07:33:16.528Z,38.90
2022-11-30T07:37:19.954Z,51.65
2022-11-30T07:41:25.210Z,50.38
2022-11-30T07:45:28.779Z,48.33
2022-11-30T07:49:32.335Z,41.78
2022-11-30T07:53:35.890Z,55.75
2022-11-30T07:57:40.363Z,40.10
2022-11-30T08:01:44.139Z,40.80
2022-11-30T08:05:47.287Z,38.35
2022-11-30T08:09:50.864Z,46.65
2022-11-30T08:13:56.399Z,38.65
2022-11-30T08:18:07.605Z,36.55
2022-11-30T08:22:11.033Z,34.63
2022-11-30T08:26:16.559Z,39.42
2022-11-30T08:30:21.811Z,44.38
2022-11-30T08:34:27.472Z,38.88
2022-11-30T08:38:31.433Z,37.72
2022-11-30T08:42:34.694Z,42.08
2022-11-30T08:46:55.289Z,43.63
2022-11-30T08:51:02.791Z,37.15
2022-11-30T08:55:07.194Z,29.95
2022-11-30T08:59:10.310Z,38.47
2022-11-30T09:03:15.212Z,35.67
2022-11-30T09:07:19.035Z,42.67
2022-11-30T09:11:25.046Z,33.65
2022-11-30T09:15:28.560Z,32.78
2022-11-30T09:19:33.024Z,29.50
2022-11-30T09:23:37.348Z,28.88
2022-11-30T09:27:40.849Z,28.17
2022-11-30T09:31:44.348Z,29.88
2022-11-30T09:35:56.260Z,31.63
2022-11-30T09:39:59.771Z,32.50
2022-11-30T09:44:15.069Z,27.73
2022-11-30T09:48:42.933Z,24.20
2022-11-30T09:52:51.338Z,23.23
2022-11-30T09:56:54.847Z,33.15
2022-11-30T10:01:01.249Z,28.42
2022-11-30T10:05:14.353Z,42.35
2022-11-30T10:09:36.206Z,31.25
2022-11-30T10:13:54.716Z,34.40
2022-11-30T10:18:06.889Z,39.35
2022-11-30T10:22:21.971Z,41.65
2022-11-30T10:26:32.249Z,30.30
2022-11-30T10:30:38.031Z,34.80
2022-11-30T10:34:44.314Z,36.97
2022-11-30T10:38:51.366Z,31.65
2022-11-30T10:43:13.648Z,39.08
2022-11-30T10:47:23.127Z,35.97
2022-11-30T10:51:28.037Z,35.80
2022-11-30T10:55:37.040Z,37.80
2022-11-30T10:59:47.583Z,48.42
2022-11-30T11:03:50.860Z,34.50
2022-11-30T11:08:05.876Z,36.83
2022-11-30T11:12:19.581Z,48.05
2022-11-30T11:16:24.509Z,37.05
2022-11-30T11:20:34.786Z,49.92
2022-11-30T11:24:38.179Z,38.05
2022-11-30T11:28:46.754Z,36.80
2022-11-30T11:33:01.790Z,36.97
2022-11-30T11:37:09.561Z,31.55
2022-11-30T11:41:20.014Z,43.08
2022-11-30T11:45:26.617Z,38.65
2022-11-30T11:49:34.301Z,37.45
2022-11-30T11:53:53.556Z,36.33
2022-11-30T11:58:01.836Z,36.72
2022-11-30T12:02:14.969Z,35.22
2022-11-30T12:06:21.260Z,30.08
2022-11-30T12:14:56.539Z,40.03
2022-11-30T12:19:05.553Z,38.08
2022-11-30T12:27:53.379Z,34.53
2022-11-30T12:32:10.090Z,36.58
2022-11-30T12:36:20.762Z,33.45
2022-11-30T12:40:34.987Z,25.52
2022-11-30T12:44:59.895Z,35.53
2022-11-30T12:49:21.311Z,44.70
2022-11-30T12:53:30.593Z,32.78
2022-11-30T12:57:40.127Z,32.00
2022-11-30T13:01:59.273Z,35.60
2022-11-30T13:06:09.257Z,40.63
2022-11-30T13:18:25.010Z,36.40
2022-11-30T13:22:46.541Z,36.28
2022-11-30T13:26:56.908Z,33.72
2022-11-30T13:31:07.361Z,31.95
2022-11-30T13:35:54.812Z,33.78
2022-11-30T13:39:59.136Z,33.50
2022-11-30T13:44:02.485Z,37.15
2022-11-30T13:48:21.939Z,35.63
2022-11-30T13:52:58.117Z,36.60
2022-11-30T13:57:03.122Z,33.17
2022-11-30T14:01:28.956Z,34.28
2022-11-30T14:05:41.789Z,36.05
2022-11-30T14:14:40.628Z,34.38
2022-11-30T14:18:48.889Z,43.08
2022-11-30T14:22:54.021Z,41.40
2022-11-30T14:26:57.925Z,40.50
2022-11-30T14:31:01.882Z,44.15
2022-11-30T14:35:11.394Z,43.47
2022-11-30T14:39:29.295Z,33.90
2022-11-30T14:43:32.977Z,37.97
2022-11-30T14:47:37.279Z,37.42
2022-11-30T14:51:43.138Z,39.05
2022-11-30T14:55:53.017Z,41.47
2022-11-30T14:59:57.333Z,41.78
2022-11-30T15:04:07.299Z,45.47
2022-11-30T15:08:15.203Z,39.70
2022-11-30T15:12:21.996Z,32.58
2022-11-30T15:16:29.834Z,44.45
2022-11-30T15:20:39.765Z,44.42
2022-11-30T15:24:44.299Z,42.22
2022-11-30T15:28:55.592Z,47.90
2022-11-30T15:32:59.752Z,56.92
2022-11-30T15:37:03.808Z,55.47
2022-11-30T15:41:22.010Z,47.75
2022-11-30T15:45:27.367Z,44.80
2022-11-30T15:49:32.215Z,46.97
2022-11-30T15:53:37.093Z,42.30
2022-11-30T15:58:01.384Z,56.63
2022-11-30T16:02:09.174Z,44.95
2022-11-30T16:06:21.297Z,47.38
2022-11-30T16:10:26.700Z,56.60
2022-11-30T16:14:31.272Z,41.00
2022-11-30T16:18:35.666Z,38.85
2022-11-30T16:22:40.548Z,48.50
2022-11-30T16:26:51.017Z,46.10
2022-11-30T16:31:01.068Z,43.75
2022-11-30T16:35:04.431Z,43.70
2022-11-30T16:39:12.297Z,40.45
2022-11-30T16:43:15.889Z,47.22
2022-11-30T16:47:23.022Z,45.55
2022-11-30T16:51:28.582Z,51.83
2022-11-30T16:55:35.168Z,39.60
2022-11-30T16:59:38.491Z,51.90
2022-11-30T17:03:46.991Z,31.70
2022-11-30T17:07:51.536Z,43.72
2022-11-30T17:11:54.623Z,43.80
2022-11-30T17:15:58.026Z,53.17
2022-11-30T17:20:03.172Z,46.80
2022-11-30T17:24:07.734Z,35.60
2022-11-30T17:28:10.841Z,36.90
2022-11-30T17:32:13.914Z,47.78
2022-11-30T17:36:19.888Z,45.65
2022-11-30T17:40:23.483Z,45.95
2022-11-30T17:44:26.516Z,46.17
2022-11-30T17:48:32.398Z,44.30
2022-11-30T17:52:37.189Z,44.35
2022-11-30T17:56:41.436Z,41.78
2022-11-30T18:00:44.836Z,33.40
2022-11-30T18:04:48.180Z,42.17
2022-11-30T18:08:53.484Z,39.53
2022-11-30T18:12:57.175Z,35.83
2022-11-30T18:17:01.069Z,34.67
2022-11-30T18:21:05.845Z,49.13
2022-11-30T18:25:10.798Z,44.55
2022-11-30T18:29:15.625Z,34.67
2022-11-30T18:33:19.076Z,38.20
2022-11-30T18:37:22.545Z,34.67
2022-11-30T18:41:28.732Z,35.13
2022-11-30T18:45:34.154Z,33.70
2022-11-30T18:49:37.730Z,41.33
2022-11-30T18:53:41.558Z,36.83
2022-11-30T18:57:46.477Z,30.63
2022-11-30T19:01:51.174Z,27.63
2022-11-30T19:05:55.538Z,32.05
2022-11-30T19:09:58.629Z,23.67
2022-11-30T19:14:07.419Z,23.98
2022-11-30T19:18:13.173Z,23.65
2022-11-30T19:22:17.027Z,27.88
2022-11-30T19:26:20.218Z,24.33
2022-11-30T19:30:26.814Z,21.13
2022-11-30T19:34:30.298Z,21.75
2022-11-30T19:38:33.980Z,18.40
2022-11-30T19:42:37.080Z,18.48
2022-11-30T19:46:43.650Z,18.92
2022-11-30T19:50:47.058Z,15.73
2022-11-30T19:54:50.575Z,19.25
2022-11-30T19:58:55.129Z,19.15
2022-11-30T20:03:10.593Z,15.48
2022-11-30T20:12:30.761Z,13.60
2022-11-30T20:16:34.551Z,20.70
2022-11-30T20:20:39.532Z,19.98
2022-11-30T20:24:44.349Z,25.02
2022-11-30T20:28:47.454Z,19.05
2022-11-30T20:32:51.086Z,12.45
2022-11-30T20:36:55.918Z,16.17
2022-11-30T20:40:59.692Z,22.80
2022-11-30T20:45:02.819Z,18.50
2022-11-30T20:49:16.009Z,19.08
2022-11-30T20:53:21.352Z,16.10
2022-11-30T20:57:24.404Z,20.02
2022-11-30T21:01:27.774Z,13.63
2022-11-30T21:05:32.970Z,16.52
2022-11-30T21:09:37.974Z,19.45
2022-11-30T21:13:42.995Z,14.48
2022-11-30T21:17:46.099Z,25.13
2022-11-30T21:21:49.193Z,24.85
2022-11-30T21:25:55.204Z,22.50
2022-11-30T21:29:58.267Z,31.20
2022-11-30T21:34:01.992Z,21.33
2022-11-30T21:38:05.483Z,17.75
2022-11-30T21:42:10.440Z,17.48
2022-11-30T21:46:15.674Z,21.13
2022-11-30T21:50:24.329Z,25.17
2022-11-30T21:54:30.748Z,21.45
2022-11-30T21:58:36.270Z,21.58
2022-11-30T22:02:39.567Z,22.40
2022-11-30T22:06:43.508Z,15.68
2022-11-30T22:10:46.921Z,20.65
2022-11-30T22:14:52.013Z,15.90
2022-11-30T22:18:56.452Z,18.75
2022-11-30T22:23:00.075Z,19.38
2022-11-30T22:27:03.650Z,23.70
2022-11-30T22:31:11.978Z,13.50
2022-11-30T22:35:15.252Z,22.00
2022-11-30T22:39:20.768Z,15.40
2022-11-30T22:43:24.287Z,21.50
2022-11-30T22:47:28.858Z,21.23
2022-11-30T22:51:34.361Z,16.48
2022-11-30T22:55:38.013Z,16.80
2022-11-30T22:59:41.267Z,19.08
2022-11-30T23:03:47.601Z,22.08
2022-11-30T23:07:51.217Z,20.02
2022-11-30T23:11:54.775Z,23.98
2022-11-30T23:15:59.991Z,20.83
2022-11-30T23:20:05.634Z,16.73
2022-11-30T23:24:17.014Z,22.98
2022-11-30T23:28:20.340Z,28.02
2022-11-30T23:32:23.764Z,22.40
2022-11-30T23:36:28.823Z,17.40
2022-11-30T23:40:32.328Z,21.38
2022-11-30T23:44:35.851Z,31.73
2022-11-30T23:48:39.449Z,28.42
2022-11-30T23:52:44.292Z,22.45
2022-11-30T23:56:47.754Z,31.73
